sensor_id;sensor_type;location;lat;lon;timestamp;temperature;humidity
4010;DHT22;2019;48.200;11.548;2022-09-28T00:01:44;12.10;76.40
4010;DHT22;2019;48.200;11.548;2022-09-28T00:04:10;12.10;76.50
4010;DHT22;2019;48.200;11.548;2022-09-28T00:06:36;12.10;76.60
4010;DHT22;2019;48.200;11.548;2022-09-28T00:09:02;12.10;76.80
4010;DHT22;2019;48.200;11.548;2022-09-28T00:11:28;12.10;76.80
4010;DHT22;2019;48.200;11.548;2022-09-28T00:13:56;12.10;76.90
4010;DHT22;2019;48.200;11.548;2022-09-28T00:16:25;12.10;77.00
4010;DHT22;2019;48.200;11.548;2022-09-28T00:18:53;12.10;77.10
4010;DHT22;2019;48.200;11.548;2022-09-28T00:21:23;12.10;77.10
4010;DHT22;2019;48.200;11.548;2022-09-28T00:23:54;12.20;77.40
4010;DHT22;2019;48.200;11.548;2022-09-28T00:26:47;12.10;77.40
4010;DHT22;2019;48.200;11.548;2022-09-28T00:29:22;12.10;77.30
4010;DHT22;2019;48.200;11.548;2022-09-28T00:31:51;12.10;77.30
4010;DHT22;2019;48.200;11.548;2022-09-28T00:34:17;12.10;77.10
4010;DHT22;2019;48.200;11.548;2022-09-28T00:36:44;12.10;77.10
4010;DHT22;2019;48.200;11.548;2022-09-28T00:39:12;12.10;77.10
4010;DHT22;2019;48.200;11.548;2022-09-28T00:41:38;12.10;77.20
4010;DHT22;2019;48.200;11.548;2022-09-28T00:44:44;12.10;77.20
4010;DHT22;2019;48.200;11.548;2022-09-28T00:50:04;12.10;77.20
4010;DHT22;2019;48.200;11.548;2022-09-28T00:55:19;12.10;77.00
4010;DHT22;2019;48.200;11.548;2022-09-28T00:57:51;12.10;77.00
4010;DHT22;2019;48.200;11.548;2022-09-28T01:00:19;12.10;77.00
4010;DHT22;2019;48.200;11.548;2022-09-28T01:02:46;12.10;76.90
4010;DHT22;2019;48.200;11.548;2022-09-28T01:05:12;12.10;76.70
4010;DHT22;2019;48.200;11.548;2022-09-28T01:07:39;12.10;76.70
4010;DHT22;2019;48.200;11.548;2022-09-28T01:10:06;12.10;76.60
4010;DHT22;2019;48.200;11.548;2022-09-28T01:12:32;12.00;76.40
4010;DHT22;2019;48.200;11.548;2022-09-28T01:14:58;12.00;76.40
4010;DHT22;2019;48.200;11.548;2022-09-28T01:17:31;12.00;76.20
4010;DHT22;2019;48.200;11.548;2022-09-28T01:20:13;12.00;76.10
4010;DHT22;2019;48.200;11.548;2022-09-28T01:23:17;12.00;76.00
4010;DHT22;2019;48.200;11.548;2022-09-28T01:28:51;12.00;76.00
4010;DHT22;2019;48.200;11.548;2022-09-28T01:31:20;11.90;75.90
4010;DHT22;2019;48.200;11.548;2022-09-28T01:33:59;11.90;76.00
4010;DHT22;2019;48.200;11.548;2022-09-28T01:36:33;11.90;76.00
4010;DHT22;2019;48.200;11.548;2022-09-28T01:39:08;11.90;76.00
4010;DHT22;2019;48.200;11.548;2022-09-28T01:41:37;11.90;75.90
4010;DHT22;2019;48.200;11.548;2022-09-28T01:44:07;11.90;75.80
4010;DHT22;2019;48.200;11.548;2022-09-28T01:46:39;11.90;75.80
4010;DHT22;2019;48.200;11.548;2022-09-28T01:49:31;11.90;76.70
4010;DHT22;2019;48.200;11.548;2022-09-28T01:52:14;11.90;76.00
4010;DHT22;2019;48.200;11.548;2022-09-28T01:54:46;11.80;75.90
4010;DHT22;2019;48.200;11.548;2022-09-28T01:59:48;11.90;76.00
4010;DHT22;2019;48.200;11.548;2022-09-28T02:02:18;11.80;76.00
4010;DHT22;2019;48.200;11.548;2022-09-28T02:04:48;11.90;76.00
4010;DHT22;2019;48.200;11.548;2022-09-28T02:07:50;11.90;76.00
4010;DHT22;2019;48.200;11.548;2022-09-28T02:10:27;11.90;75.90
4010;DHT22;2019;48.200;11.548;2022-09-28T02:13:04;11.90;75.80
4010;DHT22;2019;48.200;11.548;2022-09-28T02:15:39;11.90;75.80
4010;DHT22;2019;48.200;11.548;2022-09-28T02:18:06;11.90;75.70
4010;DHT22;2019;48.200;11.548;2022-09-28T02:20:34;11.90;75.70
4010;DHT22;2019;48.200;11.548;2022-09-28T02:23:01;11.90;75.70
4010;DHT22;2019;48.200;11.548;2022-09-28T02:25:39;11.90;75.70
4010;DHT22;2019;48.200;11.548;2022-09-28T02:28:09;11.90;75.60
4010;DHT22;2019;48.200;11.548;2022-09-28T02:30:38;11.90;75.50
4010;DHT22;2019;48.200;11.548;2022-09-28T02:33:20;11.90;75.40
4010;DHT22;2019;48.200;11.548;2022-09-28T02:35:47;11.90;75.50
4010;DHT22;2019;48.200;11.548;2022-09-28T02:38:14;11.90;75.40
4010;DHT22;2019;48.200;11.548;2022-09-28T02:40:48;11.90;75.40
4010;DHT22;2019;48.200;11.548;2022-09-28T02:49:02;11.90;75.10
4010;DHT22;2019;48.200;11.548;2022-09-28T03:00:18;11.80;74.50
4010;DHT22;2019;48.200;11.548;2022-09-28T03:03:00;11.80;74.50
4010;DHT22;2019;48.200;11.548;2022-09-28T03:08:28;11.80;74.30
4010;DHT22;2019;48.200;11.548;2022-09-28T03:13:24;11.80;75.00
4010;DHT22;2019;48.200;11.548;2022-09-28T03:15:50;11.80;74.20
4010;DHT22;2019;48.200;11.548;2022-09-28T03:18:15;11.80;74.10
4010;DHT22;2019;48.200;11.548;2022-09-28T03:20:41;11.80;74.10
4010;DHT22;2019;48.200;11.548;2022-09-28T03:23:07;11.80;74.10
4010;DHT22;2019;48.200;11.548;2022-09-28T03:25:32;11.80;74.10
4010;DHT22;2019;48.200;11.548;2022-09-28T03:27:58;11.80;74.10
4010;DHT22;2019;48.200;11.548;2022-09-28T03:30:24;11.80;74.10
4010;DHT22;2019;48.200;11.548;2022-09-28T03:32:59;11.80;74.00
4010;DHT22;2019;48.200;11.548;2022-09-28T03:35:24;11.80;74.00
4010;DHT22;2019;48.200;11.548;2022-09-28T03:37:54;11.80;73.90
4010;DHT22;2019;48.200;11.548;2022-09-28T03:40:20;11.80;73.80
4010;DHT22;2019;48.200;11.548;2022-09-28T03:42:45;11.80;73.80
4010;DHT22;2019;48.200;11.548;2022-09-28T03:45:11;11.80;73.80
4010;DHT22;2019;48.200;11.548;2022-09-28T03:47:36;11.80;73.70
4010;DHT22;2019;48.200;11.548;2022-09-28T03:50:02;11.90;73.70
4010;DHT22;2019;48.200;11.548;2022-09-28T03:52:28;11.80;73.50
4010;DHT22;2019;48.200;11.548;2022-09-28T03:54:53;11.80;73.50
4010;DHT22;2019;48.200;11.548;2022-09-28T03:57:19;11.80;73.50
4010;DHT22;2019;48.200;11.548;2022-09-28T03:59:44;11.80;73.60
4010;DHT22;2019;48.200;11.548;2022-09-28T04:02:10;11.80;73.60
4010;DHT22;2019;48.200;11.548;2022-09-28T04:04:35;11.90;73.70
4010;DHT22;2019;48.200;11.548;2022-09-28T04:07:01;11.90;73.80
4010;DHT22;2019;48.200;11.548;2022-09-28T04:09:27;11.90;73.70
4010;DHT22;2019;48.200;11.548;2022-09-28T04:11:52;11.90;73.60
4010;DHT22;2019;48.200;11.548;2022-09-28T04:14:18;12.00;73.80
4010;DHT22;2019;48.200;11.548;2022-09-28T04:16:43;11.90;73.70
4010;DHT22;2019;48.200;11.548;2022-09-28T04:19:09;11.90;73.60
4010;DHT22;2019;48.200;11.548;2022-09-28T04:21:36;12.00;73.60
4010;DHT22;2019;48.200;11.548;2022-09-28T04:24:01;11.90;73.50
4010;DHT22;2019;48.200;11.548;2022-09-28T04:26:27;11.90;73.40
4010;DHT22;2019;48.200;11.548;2022-09-28T04:28:53;11.90;73.50
4010;DHT22;2019;48.200;11.548;2022-09-28T04:31:40;11.90;73.40
4010;DHT22;2019;48.200;11.548;2022-09-28T04:34:07;11.90;73.30
4010;DHT22;2019;48.200;11.548;2022-09-28T04:36:33;11.90;73.30
4010;DHT22;2019;48.200;11.548;2022-09-28T04:38:58;11.90;73.10
4010;DHT22;2019;48.200;11.548;2022-09-28T04:41:24;11.90;73.30
4010;DHT22;2019;48.200;11.548;2022-09-28T04:43:50;11.90;73.20
4010;DHT22;2019;48.200;11.548;2022-09-28T04:46:16;11.90;73.10
4010;DHT22;2019;48.200;11.548;2022-09-28T04:48:42;12.00;72.90
4010;DHT22;2019;48.200;11.548;2022-09-28T04:51:07;12.00;72.90
4010;DHT22;2019;48.200;11.548;2022-09-28T04:53:33;12.00;72.90
4010;DHT22;2019;48.200;11.548;2022-09-28T04:56:05;12.00;73.00
4010;DHT22;2019;48.200;11.548;2022-09-28T04:58:31;12.00;73.00
4010;DHT22;2019;48.200;11.548;2022-09-28T05:01:04;12.00;73.00
4010;DHT22;2019;48.200;11.548;2022-09-28T05:03:31;12.00;73.00
4010;DHT22;2019;48.200;11.548;2022-09-28T05:05:57;12.00;73.10
4010;DHT22;2019;48.200;11.548;2022-09-28T05:08:23;12.00;73.10
4010;DHT22;2019;48.200;11.548;2022-09-28T05:10:59;12.00;73.10
4010;DHT22;2019;48.200;11.548;2022-09-28T05:13:26;12.00;73.20
4010;DHT22;2019;48.200;11.548;2022-09-28T05:15:53;12.00;73.20
4010;DHT22;2019;48.200;11.548;2022-09-28T05:18:20;11.90;73.20
4010;DHT22;2019;48.200;11.548;2022-09-28T05:20:46;11.90;73.30
4010;DHT22;2019;48.200;11.548;2022-09-28T05:23:12;11.90;73.40
4010;DHT22;2019;48.200;11.548;2022-09-28T05:25:41;11.90;73.50
4010;DHT22;2019;48.200;11.548;2022-09-28T05:28:07;11.90;73.50
4010;DHT22;2019;48.200;11.548;2022-09-28T05:30:34;11.90;73.60
4010;DHT22;2019;48.200;11.548;2022-09-28T05:33:00;11.90;73.70
4010;DHT22;2019;48.200;11.548;2022-09-28T05:35:25;11.90;73.80
4010;DHT22;2019;48.200;11.548;2022-09-28T05:37:51;11.90;74.00
4010;DHT22;2019;48.200;11.548;2022-09-28T05:40:17;11.80;73.90
4010;DHT22;2019;48.200;11.548;2022-09-28T05:42:43;11.80;74.00
4010;DHT22;2019;48.200;11.548;2022-09-28T05:45:09;11.80;74.10
4010;DHT22;2019;48.200;11.548;2022-09-28T05:47:42;11.80;74.10
4010;DHT22;2019;48.200;11.548;2022-09-28T05:50:09;11.90;74.50
4010;DHT22;2019;48.200;11.548;2022-09-28T05:52:40;11.90;74.60
4010;DHT22;2019;48.200;11.548;2022-09-28T05:55:06;11.90;74.50
4010;DHT22;2019;48.200;11.548;2022-09-28T05:57:32;11.90;74.50
4010;DHT22;2019;48.200;11.548;2022-09-28T05:59:58;11.90;74.60
4010;DHT22;2019;48.200;11.548;2022-09-28T06:02:24;11.90;74.60
4010;DHT22;2019;48.200;11.548;2022-09-28T06:04:50;11.90;74.50
4010;DHT22;2019;48.200;11.548;2022-09-28T06:07:19;11.90;74.40
4010;DHT22;2019;48.200;11.548;2022-09-28T06:09:46;11.90;74.30
4010;DHT22;2019;48.200;11.548;2022-09-28T06:12:11;11.90;74.40
4010;DHT22;2019;48.200;11.548;2022-09-28T06:14:37;11.90;74.50
4010;DHT22;2019;48.200;11.548;2022-09-28T06:17:03;11.90;74.50
4010;DHT22;2019;48.200;11.548;2022-09-28T06:19:29;11.90;74.60
4010;DHT22;2019;48.200;11.548;2022-09-28T06:21:54;12.00;75.00
4010;DHT22;2019;48.200;11.548;2022-09-28T06:24:20;11.90;75.10
4010;DHT22;2019;48.200;11.548;2022-09-28T06:26:46;11.90;75.20
4010;DHT22;2019;48.200;11.548;2022-09-28T06:29:11;11.90;75.30
4010;DHT22;2019;48.200;11.548;2022-09-28T06:31:39;11.90;75.50
4010;DHT22;2019;48.200;11.548;2022-09-28T06:34:05;11.90;75.50
4010;DHT22;2019;48.200;11.548;2022-09-28T06:36:30;11.90;75.40
4010;DHT22;2019;48.200;11.548;2022-09-28T06:38:56;11.90;75.40
4010;DHT22;2019;48.200;11.548;2022-09-28T06:41:22;11.90;75.60
4010;DHT22;2019;48.200;11.548;2022-09-28T06:43:47;11.90;75.60
4010;DHT22;2019;48.200;11.548;2022-09-28T06:46:13;11.90;75.60
4010;DHT22;2019;48.200;11.548;2022-09-28T06:48:39;11.90;75.50
4010;DHT22;2019;48.200;11.548;2022-09-28T06:51:05;12.00;75.50
4010;DHT22;2019;48.200;11.548;2022-09-28T06:53:31;11.90;75.60
4010;DHT22;2019;48.200;11.548;2022-09-28T06:55:57;11.90;75.50
4010;DHT22;2019;48.200;11.548;2022-09-28T06:58:23;11.90;75.60
4010;DHT22;2019;48.200;11.548;2022-09-28T07:00:51;11.90;75.70
4010;DHT22;2019;48.200;11.548;2022-09-28T07:03:19;11.90;75.50
4010;DHT22;2019;48.200;11.548;2022-09-28T07:05:49;11.90;75.50
4010;DHT22;2019;48.200;11.548;2022-09-28T07:08:16;11.90;75.30
4010;DHT22;2019;48.200;11.548;2022-09-28T07:10:43;12.00;75.10
4010;DHT22;2019;48.200;11.548;2022-09-28T07:13:10;12.00;74.90
4010;DHT22;2019;48.200;11.548;2022-09-28T07:15:36;12.00;75.00
4010;DHT22;2019;48.200;11.548;2022-09-28T07:18:03;12.00;75.70
4010;DHT22;2019;48.200;11.548;2022-09-28T07:20:31;12.00;75.10
4010;DHT22;2019;48.200;11.548;2022-09-28T07:23:02;12.00;75.20
4010;DHT22;2019;48.200;11.548;2022-09-28T07:25:29;12.00;75.30
4010;DHT22;2019;48.200;11.548;2022-09-28T07:27:56;12.10;75.40
4010;DHT22;2019;48.200;11.548;2022-09-28T07:30:24;12.00;75.50
4010;DHT22;2019;48.200;11.548;2022-09-28T07:32:50;12.00;75.50
4010;DHT22;2019;48.200;11.548;2022-09-28T07:35:16;12.00;75.50
4010;DHT22;2019;48.200;11.548;2022-09-28T07:37:42;12.00;75.80
4010;DHT22;2019;48.200;11.548;2022-09-28T07:40:08;12.00;76.10
4010;DHT22;2019;48.200;11.548;2022-09-28T07:42:52;12.00;76.30
4010;DHT22;2019;48.200;11.548;2022-09-28T07:45:18;12.00;76.30
4010;DHT22;2019;48.200;11.548;2022-09-28T07:47:49;12.10;76.60
4010;DHT22;2019;48.200;11.548;2022-09-28T07:50:15;12.10;76.60
4010;DHT22;2019;48.200;11.548;2022-09-28T07:52:42;12.10;76.70
4010;DHT22;2019;48.200;11.548;2022-09-28T07:55:08;12.10;76.80
4010;DHT22;2019;48.200;11.548;2022-09-28T07:57:34;12.10;76.80
4010;DHT22;2019;48.200;11.548;2022-09-28T08:00:00;12.10;77.00
4010;DHT22;2019;48.200;11.548;2022-09-28T08:02:27;12.10;77.00
4010;DHT22;2019;48.200;11.548;2022-09-28T08:04:52;12.10;77.10
4010;DHT22;2019;48.200;11.548;2022-09-28T08:07:18;12.10;77.40
4010;DHT22;2019;48.200;11.548;2022-09-28T08:09:44;12.10;77.60
4010;DHT22;2019;48.200;11.548;2022-09-28T08:12:13;12.10;77.80
4010;DHT22;2019;48.200;11.548;2022-09-28T08:14:39;12.10;77.90
4010;DHT22;2019;48.200;11.548;2022-09-28T08:17:06;12.20;78.00
4010;DHT22;2019;48.200;11.548;2022-09-28T08:19:32;12.20;78.10
4010;DHT22;2019;48.200;11.548;2022-09-28T08:22:18;12.20;78.20
4010;DHT22;2019;48.200;11.548;2022-09-28T08:24:45;12.20;78.30
4010;DHT22;2019;48.200;11.548;2022-09-28T08:27:12;12.30;78.50
4010;DHT22;2019;48.200;11.548;2022-09-28T08:29:38;12.20;78.40
4010;DHT22;2019;48.200;11.548;2022-09-28T08:32:05;12.20;78.50
4010;DHT22;2019;48.200;11.548;2022-09-28T08:34:33;12.30;78.70
4010;DHT22;2019;48.200;11.548;2022-09-28T08:36:59;12.30;79.00
4010;DHT22;2019;48.200;11.548;2022-09-28T08:39:25;12.30;79.00
4010;DHT22;2019;48.200;11.548;2022-09-28T08:42:24;12.30;79.20
4010;DHT22;2019;48.200;11.548;2022-09-28T08:44:46;12.40;79.50
4010;DHT22;2019;48.200;11.548;2022-09-28T08:47:26;12.40;79.50
4010;DHT22;2019;48.200;11.548;2022-09-28T08:50:16;12.50;79.50
4010;DHT22;2019;48.200;11.548;2022-09-28T08:52:45;12.40;79.50
4010;DHT22;2019;48.200;11.548;2022-09-28T08:55:27;12.40;79.60
4010;DHT22;2019;48.200;11.548;2022-09-28T08:58:07;12.50;79.70
4010;DHT22;2019;48.200;11.548;2022-09-28T09:00:41;12.50;79.80
4010;DHT22;2019;48.200;11.548;2022-09-28T09:03:12;12.50;79.90
4010;DHT22;2019;48.200;11.548;2022-09-28T09:08:56;12.50;79.60
4010;DHT22;2019;48.200;11.548;2022-09-28T09:11:41;12.40;79.00
4010;DHT22;2019;48.200;11.548;2022-09-28T09:14:35;12.40;78.90
4010;DHT22;2019;48.200;11.548;2022-09-28T09:17:16;12.40;78.80
4010;DHT22;2019;48.200;11.548;2022-09-28T09:19:54;12.40;78.70
4010;DHT22;2019;48.200;11.548;2022-09-28T09:22:29;12.40;78.60
4010;DHT22;2019;48.200;11.548;2022-09-28T09:25:39;12.40;78.70
4010;DHT22;2019;48.200;11.548;2022-09-28T09:48:49;12.60;79.50
4010;DHT22;2019;48.200;11.548;2022-09-28T09:51:31;12.60;79.40
4010;DHT22;2019;48.200;11.548;2022-09-28T09:54:01;12.60;79.10
4010;DHT22;2019;48.200;11.548;2022-09-28T09:56:38;12.60;78.90
4010;DHT22;2019;48.200;11.548;2022-09-28T09:59:07;12.60;79.00
4010;DHT22;2019;48.200;11.548;2022-09-28T10:01:36;12.60;79.00
4010;DHT22;2019;48.200;11.548;2022-09-28T10:04:07;12.60;79.00
4010;DHT22;2019;48.200;11.548;2022-09-28T10:06:37;12.60;79.10
4010;DHT22;2019;48.200;11.548;2022-09-28T10:09:19;12.60;79.10
4010;DHT22;2019;48.200;11.548;2022-09-28T10:11:47;12.60;79.10
4010;DHT22;2019;48.200;11.548;2022-09-28T10:14:18;12.60;79.30
4010;DHT22;2019;48.200;11.548;2022-09-28T10:16:46;12.70;79.70
4010;DHT22;2019;48.200;11.548;2022-09-28T10:19:13;12.80;79.80
4010;DHT22;2019;48.200;11.548;2022-09-28T10:21:41;12.80;79.70
4010;DHT22;2019;48.200;11.548;2022-09-28T10:24:17;13.00;80.00
4010;DHT22;2019;48.200;11.548;2022-09-28T10:26:49;12.90;80.10
4010;DHT22;2019;48.200;11.548;2022-09-28T10:29:24;12.90;79.70
4010;DHT22;2019;48.200;11.548;2022-09-28T10:31:51;12.90;79.40
4010;DHT22;2019;48.200;11.548;2022-09-28T10:34:27;12.90;79.10
4010;DHT22;2019;48.200;11.548;2022-09-28T10:36:58;12.90;79.20
4010;DHT22;2019;48.200;11.548;2022-09-28T10:39:34;12.90;78.80
4010;DHT22;2019;48.200;11.548;2022-09-28T10:42:06;12.90;78.80
4010;DHT22;2019;48.200;11.548;2022-09-28T10:44:34;12.90;78.90
4010;DHT22;2019;48.200;11.548;2022-09-28T10:47:05;12.90;79.10
4010;DHT22;2019;48.200;11.548;2022-09-28T10:49:41;12.90;78.80
4010;DHT22;2019;48.200;11.548;2022-09-28T10:52:38;12.90;78.60
4010;DHT22;2019;48.200;11.548;2022-09-28T10:55:31;12.90;78.30
4010;DHT22;2019;48.200;11.548;2022-09-28T10:58:00;12.90;78.50
4010;DHT22;2019;48.200;11.548;2022-09-28T11:00:42;12.90;78.40
4010;DHT22;2019;48.200;11.548;2022-09-28T11:03:29;12.80;78.20
4010;DHT22;2019;48.200;11.548;2022-09-28T11:06:13;12.80;78.40
4010;DHT22;2019;48.200;11.548;2022-09-28T11:08:41;12.80;78.40
4010;DHT22;2019;48.200;11.548;2022-09-28T11:11:09;12.80;78.60
4010;DHT22;2019;48.200;11.548;2022-09-28T11:13:51;12.80;78.30
4010;DHT22;2019;48.200;11.548;2022-09-28T11:18:54;12.90;78.70
4010;DHT22;2019;48.200;11.548;2022-09-28T11:21:23;12.90;79.00
4010;DHT22;2019;48.200;11.548;2022-09-28T11:26:21;13.00;79.30
4010;DHT22;2019;48.200;11.548;2022-09-28T11:28:50;12.90;79.40
4010;DHT22;2019;48.200;11.548;2022-09-28T11:31:27;13.00;79.70
4010;DHT22;2019;48.200;11.548;2022-09-28T11:34:15;13.00;79.40
4010;DHT22;2019;48.200;11.548;2022-09-28T11:36:50;13.00;79.60
4010;DHT22;2019;48.200;11.548;2022-09-28T11:39:30;13.10;79.90
4010;DHT22;2019;48.200;11.548;2022-09-28T11:42:16;13.10;80.00
4010;DHT22;2019;48.200;11.548;2022-09-28T11:44:48;13.20;80.20
4010;DHT22;2019;48.200;11.548;2022-09-28T11:49:56;13.20;80.00
4010;DHT22;2019;48.200;11.548;2022-09-28T11:52:59;13.30;79.80
4010;DHT22;2019;48.200;11.548;2022-09-28T11:58:03;13.30;79.70
4010;DHT22;2019;48.200;11.548;2022-09-28T12:00:36;13.30;79.50
4010;DHT22;2019;48.200;11.548;2022-09-28T12:03:24;13.30;79.60
4010;DHT22;2019;48.200;11.548;2022-09-28T12:05:58;13.30;79.00
4010;DHT22;2019;48.200;11.548;2022-09-28T12:08:34;13.30;79.00
4010;DHT22;2019;48.200;11.548;2022-09-28T12:13:37;13.20;79.00
4010;DHT22;2019;48.200;11.548;2022-09-28T12:16:05;13.30;79.30
4010;DHT22;2019;48.200;11.548;2022-09-28T12:19:07;13.30;79.60
4010;DHT22;2019;48.200;11.548;2022-09-28T12:21:54;13.40;80.00
4010;DHT22;2019;48.200;11.548;2022-09-28T12:24:33;13.30;79.80
4010;DHT22;2019;48.200;11.548;2022-09-28T12:27:16;13.30;79.40
4010;DHT22;2019;48.200;11.548;2022-09-28T12:29:59;13.30;79.40
4010;DHT22;2019;48.200;11.548;2022-09-28T12:32:46;13.30;79.60
4010;DHT22;2019;48.200;11.548;2022-09-28T12:38:55;13.30;79.50
4010;DHT22;2019;48.200;11.548;2022-09-28T12:50:11;13.20;79.70
4010;DHT22;2019;48.200;11.548;2022-09-28T12:55:01;13.20;79.40
4010;DHT22;2019;48.200;11.548;2022-09-28T13:00:50;13.20;79.20
4010;DHT22;2019;48.200;11.548;2022-09-28T13:04:05;13.20;79.10
4010;DHT22;2019;48.200;11.548;2022-09-28T13:09:25;13.20;79.40
4010;DHT22;2019;48.200;11.548;2022-09-28T13:12:04;13.20;79.40
4010;DHT22;2019;48.200;11.548;2022-09-28T13:15:06;13.20;79.30
4010;DHT22;2019;48.200;11.548;2022-09-28T13:22:54;13.10;78.20
4010;DHT22;2019;48.200;11.548;2022-09-28T13:25:27;13.10;78.30
4010;DHT22;2019;48.200;11.548;2022-09-28T13:28:03;13.00;78.10
4010;DHT22;2019;48.200;11.548;2022-09-28T13:30:32;13.10;78.20
4010;DHT22;2019;48.200;11.548;2022-09-28T13:33:00;13.10;78.30
4010;DHT22;2019;48.200;11.548;2022-09-28T13:35:26;13.20;78.50
4010;DHT22;2019;48.200;11.548;2022-09-28T13:38:46;13.10;78.60
4010;DHT22;2019;48.200;11.548;2022-09-28T13:41:15;13.10;78.50
4010;DHT22;2019;48.200;11.548;2022-09-28T13:43:54;13.10;78.10
4010;DHT22;2019;48.200;11.548;2022-09-28T13:52:31;13.10;77.70
4010;DHT22;2019;48.200;11.548;2022-09-28T13:55:10;13.10;77.60
4010;DHT22;2019;48.200;11.548;2022-09-28T13:57:50;13.10;77.60
4010;DHT22;2019;48.200;11.548;2022-09-28T14:02:54;13.10;77.60
4010;DHT22;2019;48.200;11.548;2022-09-28T14:16:24;13.00;76.90
4010;DHT22;2019;48.200;11.548;2022-09-28T14:19:07;13.00;77.20
4010;DHT22;2019;48.200;11.548;2022-09-28T14:29:38;13.10;78.10
4010;DHT22;2019;48.200;11.548;2022-09-28T14:32:05;13.10;78.10
4010;DHT22;2019;48.200;11.548;2022-09-28T14:35:00;13.10;78.20
4010;DHT22;2019;48.200;11.548;2022-09-28T14:37:33;13.10;78.10
4010;DHT22;2019;48.200;11.548;2022-09-28T14:40:21;13.10;78.00
4010;DHT22;2019;48.200;11.548;2022-09-28T14:43:26;13.10;77.80
4010;DHT22;2019;48.200;11.548;2022-09-28T14:48:52;13.10;78.30
4010;DHT22;2019;48.200;11.548;2022-09-28T14:59:25;13.00;77.00
4010;DHT22;2019;48.200;11.548;2022-09-28T15:02:03;13.10;77.30
4010;DHT22;2019;48.200;11.548;2022-09-28T15:04:33;13.00;77.30
4010;DHT22;2019;48.200;11.548;2022-09-28T15:07:03;13.00;77.20
4010;DHT22;2019;48.200;11.548;2022-09-28T15:09:36;13.00;77.50
4010;DHT22;2019;48.200;11.548;2022-09-28T15:17:09;13.10;77.20
4010;DHT22;2019;48.200;11.548;2022-09-28T15:19:49;12.90;77.00
4010;DHT22;2019;48.200;11.548;2022-09-28T15:22:18;12.90;76.70
4010;DHT22;2019;48.200;11.548;2022-09-28T15:24:56;12.90;76.80
4010;DHT22;2019;48.200;11.548;2022-09-28T15:27:23;12.90;76.80
4010;DHT22;2019;48.200;11.548;2022-09-28T15:30:22;12.80;76.70
4010;DHT22;2019;48.200;11.548;2022-09-28T15:32:47;12.80;76.80
4010;DHT22;2019;48.200;11.548;2022-09-28T15:35:25;12.80;76.80
4010;DHT22;2019;48.200;11.548;2022-09-28T15:37:52;12.80;77.00
4010;DHT22;2019;48.200;11.548;2022-09-28T15:40:33;12.70;77.00
4010;DHT22;2019;48.200;11.548;2022-09-28T15:42:59;12.70;77.00
4010;DHT22;2019;48.200;11.548;2022-09-28T15:45:27;12.70;77.00
4010;DHT22;2019;48.200;11.548;2022-09-28T15:48:35;12.70;77.00
4010;DHT22;2019;48.200;11.548;2022-09-28T15:51:08;12.70;77.20
4010;DHT22;2019;48.200;11.548;2022-09-28T15:53:53;12.70;77.00
4010;DHT22;2019;48.200;11.548;2022-09-28T15:56:23;12.70;77.00
4010;DHT22;2019;48.200;11.548;2022-09-28T16:01:44;12.60;77.00
4010;DHT22;2019;48.200;11.548;2022-09-28T16:07:32;12.60;77.10
4010;DHT22;2019;48.200;11.548;2022-09-28T16:15:05;12.60;77.30
4010;DHT22;2019;48.200;11.548;2022-09-28T16:17:33;12.60;77.50
4010;DHT22;2019;48.200;11.548;2022-09-28T16:22:52;12.60;77.70
4010;DHT22;2019;48.200;11.548;2022-09-28T16:25:21;12.60;77.70
4010;DHT22;2019;48.200;11.548;2022-09-28T16:27:52;12.50;77.80
4010;DHT22;2019;48.200;11.548;2022-09-28T16:33:04;12.50;77.90
4010;DHT22;2019;48.200;11.548;2022-09-28T16:35:48;12.50;78.00
4010;DHT22;2019;48.200;11.548;2022-09-28T16:38:16;12.50;77.90
4010;DHT22;2019;48.200;11.548;2022-09-28T16:40:51;12.50;77.90
4010;DHT22;2019;48.200;11.548;2022-09-28T16:43:24;12.50;78.00
4010;DHT22;2019;48.200;11.548;2022-09-28T16:46:11;12.50;78.00
4010;DHT22;2019;48.200;11.548;2022-09-28T16:48:41;12.50;78.00
4010;DHT22;2019;48.200;11.548;2022-09-28T16:51:13;12.60;78.10
4010;DHT22;2019;48.200;11.548;2022-09-28T16:53:39;12.40;77.80
4010;DHT22;2019;48.200;11.548;2022-09-28T16:56:25;12.40;77.80
4010;DHT22;2019;48.200;11.548;2022-09-28T16:58:52;12.40;77.80
4010;DHT22;2019;48.200;11.548;2022-09-28T17:01:20;12.40;77.90
4010;DHT22;2019;48.200;11.548;2022-09-28T17:03:45;12.40;78.10
4010;DHT22;2019;48.200;11.548;2022-09-28T17:06:14;12.40;78.30
4010;DHT22;2019;48.200;11.548;2022-09-28T17:08:41;12.40;78.20
4010;DHT22;2019;48.200;11.548;2022-09-28T17:11:15;12.40;78.10
4010;DHT22;2019;48.200;11.548;2022-09-28T17:13:42;12.40;78.00
4010;DHT22;2019;48.200;11.548;2022-09-28T17:16:18;12.30;77.90
4010;DHT22;2019;48.200;11.548;2022-09-28T17:18:45;12.30;78.00
4010;DHT22;2019;48.200;11.548;2022-09-28T17:21:15;12.30;78.00
4010;DHT22;2019;48.200;11.548;2022-09-28T17:23:43;12.30;78.00
4010;DHT22;2019;48.200;11.548;2022-09-28T17:26:27;12.30;78.00
4010;DHT22;2019;48.200;11.548;2022-09-28T17:28:59;12.30;77.90
4010;DHT22;2019;48.200;11.548;2022-09-28T17:31:29;12.20;77.80
4010;DHT22;2019;48.200;11.548;2022-09-28T17:33:55;12.20;77.80
4010;DHT22;2019;48.200;11.548;2022-09-28T17:36:21;12.30;77.90
4010;DHT22;2019;48.200;11.548;2022-09-28T17:38:48;12.10;77.70
4010;DHT22;2019;48.200;11.548;2022-09-28T17:41:17;12.20;77.90
4010;DHT22;2019;48.200;11.548;2022-09-28T17:43:43;12.10;77.70
4010;DHT22;2019;48.200;11.548;2022-09-28T17:46:29;12.10;77.60
4010;DHT22;2019;48.200;11.548;2022-09-28T17:48:56;12.10;77.80
4010;DHT22;2019;48.200;11.548;2022-09-28T17:51:24;12.10;77.80
4010;DHT22;2019;48.200;11.548;2022-09-28T17:53:50;12.10;77.90
4010;DHT22;2019;48.200;11.548;2022-09-28T17:56:17;12.20;78.00
4010;DHT22;2019;48.200;11.548;2022-09-28T17:58:43;12.20;78.10
4010;DHT22;2019;48.200;11.548;2022-09-28T18:01:08;12.20;78.10
4010;DHT22;2019;48.200;11.548;2022-09-28T18:03:34;12.20;78.20
4010;DHT22;2019;48.200;11.548;2022-09-28T18:06:09;12.20;78.90
4010;DHT22;2019;48.200;11.548;2022-09-28T18:08:37;12.20;78.20
4010;DHT22;2019;48.200;11.548;2022-09-28T18:11:03;12.10;78.00
4010;DHT22;2019;48.200;11.548;2022-09-28T18:13:29;12.10;78.00
4010;DHT22;2019;48.200;11.548;2022-09-28T18:15:55;12.10;77.90
4010;DHT22;2019;48.200;11.548;2022-09-28T18:18:21;12.10;77.80
4010;DHT22;2019;48.200;11.548;2022-09-28T18:20:47;12.10;77.90
4010;DHT22;2019;48.200;11.548;2022-09-28T18:23:13;12.10;77.90
4010;DHT22;2019;48.200;11.548;2022-09-28T18:25:40;12.10;78.00
4010;DHT22;2019;48.200;11.548;2022-09-28T18:28:05;12.10;78.10
4010;DHT22;2019;48.200;11.548;2022-09-28T18:30:31;12.10;78.10
4010;DHT22;2019;48.200;11.548;2022-09-28T18:32:57;11.90;77.90
4010;DHT22;2019;48.200;11.548;2022-09-28T18:35:22;12.10;78.20
4010;DHT22;2019;48.200;11.548;2022-09-28T18:37:48;12.10;78.30
4010;DHT22;2019;48.200;11.548;2022-09-28T18:40:14;12.10;78.30
4010;DHT22;2019;48.200;11.548;2022-09-28T18:42:40;12.10;78.40
4010;DHT22;2019;48.200;11.548;2022-09-28T18:45:08;12.10;78.50
4010;DHT22;2019;48.200;11.548;2022-09-28T18:47:36;12.10;78.60